Time;durP1;ratioP1;P1;durP2;ratioP2;P2;SDS_P1;SDS_P2;PMS_P1;PMS_P2;Temp;Humidity;BMP_temperature;BMP_pressure;BME280_temperature;BME280_humidity;BME280_pressure;Samples;Min_cycle;Max_cycle;Signal;HPM_P1;HPM_P2
2023/04/12 00:00:29;;;;;;;23.20;21.70;;;;;;;;;;5018296;28;20228;-80
2023/04/12 00:03:01;;;;;;;22.37;20.80;;;;;;;;;;5018800;28;21012;-80
2023/04/12 00:05:29;;;;;;;23.63;22.10;;;;;;;;;;5018569;28;20840;-80
2023/04/12 00:07:57;;;;;;;23.20;21.70;;;;;;;;;;5018552;28;20434;-81
2023/04/12 00:10:24;;;;;;;22.60;20.60;;;;;;;;;;5018047;28;20217;-81
2023/04/12 00:12:51;;;;;;;21.97;20.53;;;;;;;;;;5018456;28;20205;-80
2023/04/12 00:15:18;;;;;;;22.23;20.63;;;;;;;;;;5019460;28;20493;-80
2023/04/12 00:17:46;;;;;;;22.73;21.13;;;;;;;;;;5017947;28;20213;-81
2023/04/12 00:20:15;;;;;;;21.97;20.47;;;;;;;;;;5018366;28;20978;-80
2023/04/12 00:22:42;;;;;;;23.83;21.63;;;;;;;;;;5019069;28;20428;-80
2023/04/12 00:25:10;;;;;;;23.77;21.73;;;;;;;;;;5019322;28;20423;-81
2023/04/12 00:27:37;;;;;;;22.30;20.90;;;;;;;;;;5019387;28;20456;-80
2023/04/12 00:30:06;;;;;;;23.40;21.70;;;;;;;;;;5017768;28;20496;-80
2023/04/12 00:32:33;;;;;;;23.30;21.90;;;;;;;;;;5019671;28;20799;-81
2023/04/12 00:35:00;;;;;;;22.23;20.73;;;;;;;;;;5019090;28;20468;-81
2023/04/12 00:37:28;;;;;;;22.20;20.77;;;;;;;;;;5018976;28;20437;-80
2023/04/12 00:39:55;;;;;;;22.10;20.55;;;;;;;;;;5019304;28;20550;-81
2023/04/12 00:42:22;;;;;;;23.83;21.95;;;;;;;;;;5019183;28;20263;-80
2023/04/12 00:44:49;;;;;;;22.70;21.20;;;;;;;;;;5018121;28;20205;-80
2023/04/12 00:47:16;;;;;;;23.07;21.43;;;;;;;;;;5017727;28;20981;-81
2023/04/12 00:49:43;;;;;;;22.70;21.10;;;;;;;;;;5018914;28;20476;-81
2023/04/12 00:52:13;;;;;;;21.30;19.70;;;;;;;;;;5018418;28;20425;-80
2023/04/12 00:54:42;;;;;;;21.90;20.47;;;;;;;;;;5018043;28;20439;-80
2023/04/12 00:57:09;;;;;;;21.67;20.10;;;;;;;;;;5017395;28;20518;-80
2023/04/12 00:59:36;;;;;;;22.27;20.37;;;;;;;;;;5017164;28;20492;-80
2023/04/12 01:02:03;;;;;;;22.10;20.50;;;;;;;;;;5018450;28;20457;-80
2023/04/12 01:04:30;;;;;;;22.30;20.87;;;;;;;;;;5018622;28;20452;-81
2023/04/12 01:07:09;;;;;;;22.67;20.90;;;;;;;;;;5017942;28;20858;-80
2023/04/12 01:09:39;;;;;;;22.13;20.70;;;;;;;;;;5018286;28;20450;-80
2023/04/12 01:12:10;;;;;;;23.07;21.27;;;;;;;;;;5017943;28;20914;-81
2023/04/12 01:14:43;;;;;;;22.37;20.87;;;;;;;;;;5015753;28;20452;-80
2023/04/12 01:17:13;;;;;;;22.67;21.10;;;;;;;;;;5014668;28;20964;-80
2023/04/12 01:19:52;;;;;;;21.83;20.40;;;;;;;;;;5015156;28;20833;-80
2023/04/12 01:22:26;;;;;;;22.63;20.93;;;;;;;;;;5015691;28;20439;-80
2023/04/12 01:25:03;;;;;;;22.05;20.70;;;;;;;;;;5015708;28;20800;-80
2023/04/12 01:27:40;;;;;;;21.53;20.13;;;;;;;;;;5014823;28;20252;-80
2023/04/12 01:30:08;;;;;;;21.63;20.03;;;;;;;;;;5014359;28;20519;-80
2023/04/12 01:32:37;;;;;;;22.50;20.87;;;;;;;;;;5015086;28;20842;-80
2023/04/12 01:35:06;;;;;;;22.23;20.63;;;;;;;;;;5015259;28;20411;-80
2023/04/12 01:37:33;;;;;;;22.00;20.60;;;;;;;;;;5014069;28;20543;-80
2023/04/12 01:40:00;;;;;;;22.20;20.60;;;;;;;;;;5014897;28;20489;-80
2023/04/12 01:42:28;;;;;;;21.77;20.30;;;;;;;;;;5014989;28;20486;-80
2023/04/12 01:44:56;;;;;;;22.33;20.73;;;;;;;;;;5014756;28;20929;-80
2023/04/12 01:47:23;;;;;;;22.60;20.87;;;;;;;;;;5013963;28;20877;-80
2023/04/12 01:49:56;;;;;;;21.13;19.87;;;;;;;;;;5014687;28;20464;-80
2023/04/12 01:52:23;;;;;;;22.70;20.53;;;;;;;;;;5015072;28;20494;-80
2023/04/12 01:54:51;;;;;;;22.40;20.57;;;;;;;;;;5015277;28;20453;-80
2023/04/12 01:57:19;;;;;;;214.43;104.23;;;;;;;;;;5014060;28;20427;-80
2023/04/12 01:59:47;;;;;;;36.87;32.23;;;;;;;;;;5014388;28;20505;-80
2023/04/12 02:02:16;;;;;;;23.70;21.80;;;;;;;;;;5016325;28;20460;-81
2023/04/12 02:04:43;;;;;;;21.93;20.53;;;;;;;;;;5014349;28;20920;-79
2023/04/12 02:07:10;;;;;;;21.57;20.07;;;;;;;;;;5012551;28;20483;-80
2023/04/12 02:09:38;;;;;;;21.20;20.00;;;;;;;;;;5013268;28;20463;-80
2023/04/12 02:12:05;;;;;;;21.50;20.13;;;;;;;;;;5013574;28;20481;-80
2023/04/12 02:14:32;;;;;;;22.33;20.50;;;;;;;;;;5013212;28;20454;-79
2023/04/12 02:17:01;;;;;;;22.27;20.67;;;;;;;;;;5012551;28;20473;-80
2023/04/12 02:19:29;;;;;;;21.77;20.23;;;;;;;;;;5013050;28;20487;-80
2023/04/12 02:21:56;;;;;;;21.27;19.97;;;;;;;;;;5013593;28;20213;-80
2023/04/12 02:24:23;;;;;;;21.90;20.07;;;;;;;;;;5013530;28;20457;-80
2023/04/12 02:26:50;;;;;;;21.87;20.47;;;;;;;;;;5012988;28;20462;-80
2023/04/12 02:29:17;;;;;;;21.23;19.83;;;;;;;;;;5012794;28;20480;-79
2023/04/12 02:31:44;;;;;;;21.63;20.53;;;;;;;;;;5013236;28;20426;-80
2023/04/12 02:34:12;;;;;;;21.73;20.40;;;;;;;;;;5013344;28;20449;-80
2023/04/12 02:36:40;;;;;;;21.70;20.20;;;;;;;;;;5013423;28;20423;-80
2023/04/12 02:39:07;;;;;;;21.00;19.80;;;;;;;;;;5013428;28;20454;-80
2023/04/12 02:41:34;;;;;;;22.60;20.70;;;;;;;;;;5013382;28;20501;-80
2023/04/12 02:44:02;;;;;;;21.90;20.40;;;;;;;;;;5013689;28;20456;-80
2023/04/12 02:46:29;;;;;;;20.80;19.30;;;;;;;;;;5013156;28;20426;-80
2023/04/12 02:48:56;;;;;;;22.37;20.47;;;;;;;;;;5014489;28;20791;-80
2023/04/12 02:51:23;;;;;;;21.53;20.23;;;;;;;;;;5016818;28;20526;-80
2023/04/12 02:53:52;;;;;;;21.07;19.87;;;;;;;;;;5017241;28;20534;-80
2023/04/12 02:56:20;;;;;;;21.37;20.17;;;;;;;;;;5017207;28;20574;-80
2023/04/12 02:58:47;;;;;;;21.37;20.17;;;;;;;;;;5017483;28;20474;-80
2023/04/12 03:01:15;;;;;;;20.87;19.67;;;;;;;;;;5017029;28;20458;-80
2023/04/12 03:03:43;;;;;;;20.83;19.53;;;;;;;;;;5016498;28;20951;-80
2023/04/12 03:06:10;;;;;;;20.90;19.67;;;;;;;;;;5016452;28;20810;-80
2023/04/12 03:08:37;;;;;;;21.10;19.80;;;;;;;;;;5016882;28;20888;-80
2023/04/12 03:11:05;;;;;;;21.73;20.23;;;;;;;;;;5017312;28;20919;-80
2023/04/12 03:13:32;;;;;;;21.47;20.03;;;;;;;;;;5017368;28;20506;-80
2023/04/12 03:16:00;;;;;;;22.50;20.80;;;;;;;;;;5016838;28;20503;-80
2023/04/12 03:18:27;;;;;;;22.33;20.80;;;;;;;;;;5016126;28;20463;-80
2023/04/12 03:20:54;;;;;;;22.43;21.13;;;;;;;;;;5016456;28;20496;-80
2023/04/12 03:23:21;;;;;;;21.10;19.90;;;;;;;;;;5016719;28;20479;-80
2023/04/12 03:25:48;;;;;;;20.50;19.33;;;;;;;;;;5016440;28;20514;-80
2023/04/12 03:28:16;;;;;;;21.37;20.10;;;;;;;;;;5016123;28;20515;-80
2023/04/12 03:30:43;;;;;;;22.43;21.03;;;;;;;;;;5016949;28;20849;-80
2023/04/12 03:33:10;;;;;;;21.60;20.27;;;;;;;;;;5016591;28;20456;-80
2023/04/12 03:35:37;;;;;;;20.90;19.70;;;;;;;;;;5016229;28;20491;-81
2023/04/12 03:38:04;;;;;;;20.83;19.63;;;;;;;;;;5016959;28;20934;-81
2023/04/12 03:40:31;;;;;;;21.03;19.83;;;;;;;;;;5016737;28;20558;-80
2023/04/12 03:42:59;;;;;;;20.83;19.63;;;;;;;;;;5016425;28;20489;-80
2023/04/12 03:45:27;;;;;;;20.37;19.17;;;;;;;;;;5016875;28;20806;-81
2023/04/12 03:47:54;;;;;;;20.90;19.10;;;;;;;;;;5015545;28;20457;-80
2023/04/12 03:50:22;;;;;;;20.40;19.20;;;;;;;;;;5016246;28;20933;-79
2023/04/12 03:52:49;;;;;;;20.23;18.87;;;;;;;;;;5016424;28;20780;-80
2023/04/12 03:55:17;;;;;;;21.13;19.63;;;;;;;;;;5016732;28;20460;-80
2023/04/12 03:57:45;;;;;;;20.57;19.37;;;;;;;;;;5015881;28;20933;-80
2023/04/12 04:00:13;;;;;;;20.73;19.57;;;;;;;;;;5014708;28;20523;-81
2023/04/12 04:02:41;;;;;;;21.13;19.63;;;;;;;;;;5016272;28;20500;-80
2023/04/12 04:05:11;;;;;;;20.70;19.60;;;;;;;;;;5016275;28;20460;-80
2023/04/12 04:07:39;;;;;;;20.10;19.10;;;;;;;;;;5016248;28;20434;-80
2023/04/12 04:10:06;;;;;;;21.33;19.93;;;;;;;;;;5015259;28;20713;-80
2023/04/12 04:12:33;;;;;;;21.33;20.00;;;;;;;;;;5016545;28;20452;-80
2023/04/12 04:15:00;;;;;;;19.60;18.70;;;;;;;;;;5016258;28;20502;-81
2023/04/12 04:17:27;;;;;;;21.13;19.83;;;;;;;;;;5015192;28;20437;-80
2023/04/12 04:19:56;;;;;;;21.07;19.73;;;;;;;;;;5015736;28;20828;-80
2023/04/12 04:22:23;;;;;;;20.05;18.95;;;;;;;;;;5016205;28;20474;-80
2023/04/12 04:24:50;;;;;;;20.83;19.13;;;;;;;;;;5016403;28;20213;-80
2023/04/12 04:27:19;;;;;;;20.70;19.33;;;;;;;;;;5015600;28;20862;-80
2023/04/12 04:29:46;;;;;;;21.40;20.00;;;;;;;;;;5015172;28;20539;-80
2023/04/12 04:32:14;;;;;;;21.80;19.80;;;;;;;;;;5015576;28;20440;-80
2023/04/12 04:34:42;;;;;;;19.90;18.80;;;;;;;;;;5015911;28;20511;-80
2023/04/12 04:37:11;;;;;;;21.10;19.90;;;;;;;;;;5015072;28;20459;-78
2023/04/12 04:39:38;;;;;;;20.92;19.63;;;;;;;;;;5015177;28;20464;-78
2023/04/12 04:42:05;;;;;;;21.40;20.20;;;;;;;;;;5014998;28;20332;-78
2023/04/12 04:44:34;;;;;;;20.53;19.23;;;;;;;;;;5015152;28;20462;-78
2023/04/12 04:47:02;;;;;;;21.20;19.80;;;;;;;;;;5013772;28;20477;-78
2023/04/12 04:49:29;;;;;;;21.20;19.60;;;;;;;;;;5014840;28;20479;-78
2023/04/12 04:51:56;;;;;;;21.20;19.67;;;;;;;;;;5014735;28;20480;-78
2023/04/12 04:54:24;;;;;;;22.77;21.35;;;;;;;;;;5014950;28;20423;-78
2023/04/12 04:56:51;;;;;;;21.90;20.30;;;;;;;;;;5014427;28;20205;-78
2023/04/12 04:59:18;;;;;;;21.23;19.93;;;;;;;;;;5013631;28;21044;-78
2023/04/12 05:01:45;;;;;;;21.73;20.40;;;;;;;;;;5014863;28;20898;-78
2023/04/12 05:04:12;;;;;;;21.20;19.90;;;;;;;;;;5014786;28;20427;-79
2023/04/12 05:06:39;;;;;;;22.03;20.40;;;;;;;;;;5016161;28;20456;-79
2023/04/12 05:09:06;;;;;;;22.30;20.80;;;;;;;;;;5017134;28;20484;-79
2023/04/12 05:11:36;;;;;;;23.23;21.30;;;;;;;;;;5017185;28;21005;-79
2023/04/12 05:14:03;;;;;;;21.70;20.40;;;;;;;;;;5017311;28;20457;-79
2023/04/12 05:16:30;;;;;;;21.00;19.70;;;;;;;;;;5016508;28;20422;-79
2023/04/12 05:18:57;;;;;;;21.53;20.07;;;;;;;;;;5016233;28;20468;-78
2023/04/12 05:21:24;;;;;;;21.43;20.13;;;;;;;;;;5015964;28;21029;-78
2023/04/12 05:23:51;;;;;;;21.30;19.80;;;;;;;;;;5016256;28;20464;-78
2023/04/12 05:26:18;;;;;;;20.30;19.17;;;;;;;;;;5015130;28;20431;-79
2023/04/12 05:28:46;;;;;;;20.60;19.40;;;;;;;;;;5015767;28;20446;-79
2023/04/12 05:31:13;;;;;;;20.20;19.10;;;;;;;;;;5015167;28;20464;-79
2023/04/12 05:33:40;;;;;;;20.40;19.20;;;;;;;;;;5015587;28;20841;-78
2023/04/12 05:36:07;;;;;;;20.30;19.10;;;;;;;;;;5015355;28;20456;-78
2023/04/12 05:38:34;;;;;;;20.97;19.77;;;;;;;;;;5015402;28;20472;-78
2023/04/12 05:41:03;;;;;;;21.30;19.90;;;;;;;;;;5014349;28;20486;-78
2023/04/12 05:43:30;;;;;;;21.77;19.93;;;;;;;;;;5014964;28;20434;-78
2023/04/12 05:45:58;;;;;;;20.90;19.30;;;;;;;;;;5014570;28;20427;-78
2023/04/12 05:48:25;;;;;;;20.53;19.23;;;;;;;;;;5014862;28;20501;-78
2023/04/12 05:50:52;;;;;;;20.23;19.10;;;;;;;;;;5015016;28;20444;-79
2023/04/12 05:53:19;;;;;;;20.33;19.00;;;;;;;;;;5014951;28;20412;-77
2023/04/12 05:55:46;;;;;;;21.70;20.17;;;;;;;;;;5014030;28;20527;-78
2023/04/12 05:58:13;;;;;;;20.83;19.17;;;;;;;;;;5014022;28;20470;-78
2023/04/12 06:00:41;;;;;;;21.30;19.90;;;;;;;;;;5014823;28;20423;-84
2023/04/12 06:03:10;;;;;;;21.70;19.97;;;;;;;;;;5014336;28;20504;-78
2023/04/12 06:05:37;;;;;;;21.17;19.83;;;;;;;;;;5014117;28;20834;-78
2023/04/12 06:08:04;;;;;;;20.30;19.10;;;;;;;;;;5031049;28;20477;-78
2023/04/12 06:10:32;;;;;;;20.50;19.20;;;;;;;;;;5033851;28;20466;-79
2023/04/12 06:12:59;;;;;;;21.43;20.23;;;;;;;;;;5036169;28;20426;-78
2023/04/12 06:15:26;;;;;;;20.70;19.00;;;;;;;;;;5037182;28;20966;-79
2023/04/12 06:17:53;;;;;;;20.60;19.40;;;;;;;;;;5036760;28;20430;-79
2023/04/12 06:20:21;;;;;;;20.80;19.30;;;;;;;;;;5035573;28;20449;-79
2023/04/12 06:22:48;;;;;;;21.90;20.20;;;;;;;;;;5036917;28;20541;-79
2023/04/12 06:25:15;;;;;;;20.20;18.80;;;;;;;;;;5039896;28;20426;-78
2023/04/12 06:27:43;;;;;;;21.90;20.13;;;;;;;;;;5040397;28;20450;-79
2023/04/12 06:30:10;;;;;;;20.97;19.60;;;;;;;;;;5040164;28;20833;-78
2023/04/12 06:32:37;;;;;;;21.33;19.83;;;;;;;;;;5040323;28;20395;-79
2023/04/12 06:35:04;;;;;;;21.00;19.37;;;;;;;;;;5039012;28;20467;-79
2023/04/12 06:37:33;;;;;;;21.50;19.90;;;;;;;;;;5038347;28;20480;-78
2023/04/12 06:40:00;;;;;;;20.67;19.37;;;;;;;;;;5038732;28;20471;-78
2023/04/12 06:42:27;;;;;;;20.63;19.43;;;;;;;;;;5038538;28;21107;-78
2023/04/12 06:44:54;;;;;;;22.07;20.43;;;;;;;;;;5037361;28;20997;-78
2023/04/12 06:47:22;;;;;;;19.67;18.67;;;;;;;;;;5037930;28;20834;-79
2023/04/12 06:49:50;;;;;;;21.03;19.73;;;;;;;;;;5037064;28;20979;-78
2023/04/12 06:52:17;;;;;;;22.07;20.67;;;;;;;;;;5037717;28;20429;-78
2023/04/12 06:54:46;;;;;;;20.97;19.50;;;;;;;;;;5037237;28;20436;-78
2023/04/12 06:57:13;;;;;;;20.37;19.17;;;;;;;;;;5036695;28;20462;-78
2023/04/12 06:59:40;;;;;;;21.00;19.70;;;;;;;;;;5036288;28;20817;-78
2023/04/12 07:02:07;;;;;;;21.70;20.23;;;;;;;;;;5037739;28;20511;-78
2023/04/12 07:04:34;;;;;;;20.90;19.50;;;;;;;;;;5037600;28;20468;-78
2023/04/12 07:07:01;;;;;;;19.90;18.80;;;;;;;;;;5036556;28;20426;-77
2023/04/12 07:09:28;;;;;;;19.67;18.50;;;;;;;;;;5036584;28;20463;-78
2023/04/12 07:11:56;;;;;;;20.20;19.00;;;;;;;;;;5037882;28;20923;-78
2023/04/12 07:14:24;;;;;;;20.57;19.47;;;;;;;;;;5036748;28;20776;-78
2023/04/12 07:16:51;;;;;;;19.60;18.57;;;;;;;;;;5036197;28;20488;-78
2023/04/12 07:19:18;;;;;;;20.30;18.80;;;;;;;;;;5036426;28;20463;-78
2023/04/12 07:21:45;;;;;;;18.73;17.83;;;;;;;;;;5037062;28;20494;-79
2023/04/12 07:24:12;;;;;;;19.50;18.40;;;;;;;;;;5037142;28;21062;-79
2023/04/12 07:26:39;;;;;;;20.60;19.10;;;;;;;;;;5034679;28;20520;-78
2023/04/12 07:29:07;;;;;;;19.07;17.97;;;;;;;;;;5036114;28;20479;-78
2023/04/12 07:31:34;;;;;;;19.20;18.20;;;;;;;;;;5036627;28;20831;-78
2023/04/12 07:34:01;;;;;;;20.40;19.30;;;;;;;;;;5036540;28;20998;-79
2023/04/12 07:36:28;;;;;;;19.80;18.50;;;;;;;;;;5034549;28;20445;-78
2023/04/12 07:38:55;;;;;;;19.30;18.10;;;;;;;;;;5035447;28;20462;-78
2023/04/12 07:41:22;;;;;;;19.70;18.70;;;;;;;;;;5035838;28;20479;-78
2023/04/12 07:43:49;;;;;;;19.80;18.67;;;;;;;;;;5035961;28;20451;-82
2023/04/12 07:46:18;;;;;;;20.07;18.97;;;;;;;;;;5035252;28;20971;-77
2023/04/12 07:48:45;;;;;;;18.40;17.50;;;;;;;;;;5035578;28;20452;-78
2023/04/12 07:51:12;;;;;;;19.27;18.20;;;;;;;;;;5036384;28;20494;-79
2023/04/12 07:53:40;;;;;;;19.30;18.30;;;;;;;;;;5035331;28;20467;-79
2023/04/12 07:56:08;;;;;;;18.70;17.70;;;;;;;;;;5035489;28;20479;-78
2023/04/12 07:58:35;;;;;;;19.73;18.73;;;;;;;;;;5035864;28;20501;-78
2023/04/12 08:01:02;;;;;;;19.87;18.70;;;;;;;;;;5035754;28;20458;-79
2023/04/12 08:03:30;;;;;;;19.83;18.83;;;;;;;;;;5035967;28;20900;-78
2023/04/12 08:05:57;;;;;;;19.83;18.50;;;;;;;;;;5035533;28;20501;-78
2023/04/12 08:08:24;;;;;;;19.67;18.67;;;;;;;;;;5035164;28;20954;-78
2023/04/12 08:10:52;;;;;;;19.30;18.30;;;;;;;;;;5035722;28;20506;-78
2023/04/12 08:13:20;;;;;;;19.90;18.80;;;;;;;;;;5036726;28;20426;-78
2023/04/12 08:15:47;;;;;;;19.23;18.23;;;;;;;;;;5035071;28;20467;-78
2023/04/12 08:18:14;;;;;;;20.40;19.10;;;;;;;;;;5035841;28;20453;-78
2023/04/12 08:20:43;;;;;;;20.20;19.10;;;;;;;;;;5035473;28;20498;-78
2023/04/12 08:23:10;;;;;;;19.20;18.10;;;;;;;;;;5035276;28;20491;-78
2023/04/12 08:25:37;;;;;;;20.07;18.97;;;;;;;;;;5034720;28;20443;-78
2023/04/12 08:28:06;;;;;;;20.70;19.53;;;;;;;;;;5034816;28;20433;-78
2023/04/12 08:30:33;;;;;;;19.00;18.10;;;;;;;;;;5034781;28;20905;-78
2023/04/12 08:33:00;;;;;;;19.20;18.20;;;;;;;;;;5035341;28;20426;-78
2023/04/12 08:35:27;;;;;;;19.57;18.47;;;;;;;;;;5034837;28;20775;-79
2023/04/12 08:37:56;;;;;;;19.77;18.77;;;;;;;;;;5035037;28;20430;-79
2023/04/12 08:40:23;;;;;;;20.97;19.77;;;;;;;;;;5035001;28;20456;-79
2023/04/12 08:42:51;;;;;;;20.33;19.23;;;;;;;;;;5034732;28;20458;-78
2023/04/12 08:45:18;;;;;;;20.03;18.90;;;;;;;;;;5034495;28;20475;-79
2023/04/12 08:47:45;;;;;;;19.07;18.07;;;;;;;;;;5034077;28;20529;-78
2023/04/12 08:50:13;;;;;;;19.70;18.77;;;;;;;;;;5035653;28;20467;-78
2023/04/12 08:52:41;;;;;;;18.20;17.40;;;;;;;;;;5034385;28;20437;-79
2023/04/12 08:55:11;;;;;;;19.73;18.77;;;;;;;;;;5034902;28;20442;-80
2023/04/12 08:57:40;;;;;;;19.00;18.10;;;;;;;;;;5034187;28;20975;-79
2023/04/12 09:00:08;;;;;;;20.00;19.00;;;;;;;;;;5034528;28;20966;-79
2023/04/12 09:02:36;;;;;;;19.50;18.50;;;;;;;;;;5034818;28;20470;-79
2023/04/12 09:05:03;;;;;;;19.80;18.90;;;;;;;;;;5034854;28;20462;-79
2023/04/12 09:07:30;;;;;;;20.07;18.83;;;;;;;;;;5034302;28;20940;-79
2023/04/12 09:09:58;;;;;;;19.30;18.40;;;;;;;;;;5034246;28;20486;-79
2023/04/12 09:12:26;;;;;;;18.40;17.40;;;;;;;;;;5037090;28;20451;-80
2023/04/12 09:15:07;;;;;;;18.13;17.33;;;;;;;;;;5037795;28;20440;-80
2023/04/12 09:17:35;;;;;;;19.10;18.00;;;;;;;;;;5037553;28;20439;-80
2023/04/12 09:20:03;;;;;;;19.00;18.10;;;;;;;;;;5035984;28;20508;-77
2023/04/12 09:22:34;;;;;;;18.90;17.80;;;;;;;;;;5034650;28;20494;-77
2023/04/12 09:25:01;;;;;;;19.30;18.40;;;;;;;;;;5034496;28;20452;-78
2023/04/12 09:27:30;;;;;;;18.63;17.70;;;;;;;;;;5034527;28;20494;-77
2023/04/12 09:30:07;;;;;;;19.10;18.20;;;;;;;;;;5033415;28;20483;-77
2023/04/12 09:32:34;;;;;;;18.37;17.57;;;;;;;;;;5034060;28;20417;-77
2023/04/12 09:35:04;;;;;;;18.10;17.20;;;;;;;;;;5034105;28;20538;-77
2023/04/12 09:37:31;;;;;;;18.40;17.40;;;;;;;;;;5032754;28;20817;-77
2023/04/12 09:40:03;;;;;;;18.57;17.67;;;;;;;;;;5033104;28;21171;-77
2023/04/12 09:42:31;;;;;;;18.27;17.20;;;;;;;;;;5034314;28;20478;-77
2023/04/12 09:45:02;;;;;;;17.70;16.80;;;;;;;;;;5033349;28;20490;-77
2023/04/12 09:47:39;;;;;;;18.10;17.20;;;;;;;;;;5033337;28;20473;-77
2023/04/12 09:50:07;;;;;;;18.60;17.70;;;;;;;;;;5033513;28;20450;-77
2023/04/12 09:52:37;;;;;;;18.50;17.60;;;;;;;;;;5033088;28;20825;-79
2023/04/12 09:55:08;;;;;;;19.00;18.10;;;;;;;;;;5033051;28;20941;-81
2023/04/12 09:57:38;;;;;;;18.20;17.30;;;;;;;;;;5034619;28;20443;-82
2023/04/12 10:00:07;;;;;;;18.17;17.23;;;;;;;;;;5033729;28;20430;-86
2023/04/12 10:02:34;;;;;;;18.20;17.30;;;;;;;;;;5034048;28;20488;-86
2023/04/12 10:05:02;;;;;;;18.23;17.33;;;;;;;;;;5033022;28;20459;-85
2023/04/12 10:07:30;;;;;;;18.00;17.10;;;;;;;;;;5033709;28;20482;-85
2023/04/12 10:09:58;;;;;;;17.87;17.07;;;;;;;;;;5034299;28;20454;-85
2023/04/12 10:12:26;;;;;;;17.83;17.00;;;;;;;;;;5033967;28;20429;-87
2023/04/12 10:14:55;;;;;;;18.20;17.20;;;;;;;;;;5034078;28;20443;-85
2023/04/12 10:17:25;;;;;;;17.93;16.93;;;;;;;;;;5033211;28;20476;-77
2023/04/12 10:19:52;;;;;;;17.80;16.97;;;;;;;;;;5033709;28;20476;-78
2023/04/12 10:22:19;;;;;;;18.27;17.17;;;;;;;;;;5036116;28;20487;-78
2023/04/12 10:24:47;;;;;;;18.23;17.10;;;;;;;;;;5036573;28;20504;-78
2023/04/12 10:27:25;;;;;;;18.20;17.30;;;;;;;;;;5038486;28;20414;-79
2023/04/12 10:29:52;;;;;;;18.10;17.20;;;;;;;;;;5038925;28;20913;-79
2023/04/12 10:32:21;;;;;;;17.80;16.90;;;;;;;;;;5038231;28;20423;-79
2023/04/12 10:34:51;;;;;;;18.03;17.13;;;;;;;;;;5035816;28;20445;-79
2023/04/12 10:37:18;;;;;;;18.63;17.73;;;;;;;;;;5035981;28;20505;-80
2023/04/12 10:39:46;;;;;;;18.43;17.60;;;;;;;;;;5035048;28;20430;-78
2023/04/12 10:42:21;;;;;;;18.27;17.43;;;;;;;;;;5034424;28;20426;-78
2023/04/12 10:44:49;;;;;;;18.33;17.43;;;;;;;;;;5033957;28;20462;-77
2023/04/12 10:47:16;;;;;;;17.50;16.70;;;;;;;;;;5033606;28;20455;-77
2023/04/12 10:50:12;;;;;;;17.93;17.13;;;;;;;;;;5034315;28;20505;-78
2023/04/12 10:52:40;;;;;;;18.10;17.27;;;;;;;;;;5032599;28;20423;-76
2023/04/12 10:55:22;;;;;;;18.30;17.50;;;;;;;;;;5032758;28;20562;-78
2023/04/12 10:57:52;;;;;;;18.17;17.37;;;;;;;;;;5032998;28;20849;-79
2023/04/12 11:00:20;;;;;;;17.20;16.40;;;;;;;;;;5034527;28;20458;-78
2023/04/12 11:03:10;;;;;;;17.63;16.87;;;;;;;;;;5035270;28;20880;-78
2023/04/12 11:05:56;;;;;;;17.87;17.17;;;;;;;;;;5034265;28;20879;-77
2023/04/12 11:08:25;;;;;;;18.43;17.63;;;;;;;;;;5033426;28;20441;-77
2023/04/12 11:10:52;;;;;;;19.10;18.20;;;;;;;;;;5036041;28;20447;-78
2023/04/12 11:13:20;;;;;;;17.67;16.87;;;;;;;;;;5038136;28;20822;-78
2023/04/12 11:15:47;;;;;;;18.23;17.33;;;;;;;;;;5037074;28;20837;-78
2023/04/12 11:18:14;;;;;;;20.33;19.30;;;;;;;;;;5037781;28;20471;-78
2023/04/12 11:20:41;;;;;;;18.10;17.30;;;;;;;;;;5038391;28;20467;-79
2023/04/12 11:23:09;;;;;;;18.17;17.27;;;;;;;;;;5038146;28;20536;-78
2023/04/12 11:25:39;;;;;;;20.53;19.53;;;;;;;;;;5037439;28;20503;-78
2023/04/12 11:28:06;;;;;;;22.13;21.03;;;;;;;;;;5037938;28;20438;-78
2023/04/12 11:30:33;;;;;;;18.53;17.63;;;;;;;;;;5037659;28;20972;-78
2023/04/12 11:33:00;;;;;;;18.20;17.40;;;;;;;;;;5037835;28;20418;-77
2023/04/12 11:35:29;;;;;;;19.30;18.47;;;;;;;;;;5037200;28;20445;-79
2023/04/12 11:37:57;;;;;;;18.17;17.37;;;;;;;;;;5036442;28;20525;-77
2023/04/12 11:40:24;;;;;;;18.20;17.40;;;;;;;;;;5035758;28;20426;-77
2023/04/12 11:42:52;;;;;;;19.17;17.50;;;;;;;;;;5034834;28;20479;-76
2023/04/12 11:45:20;;;;;;;18.00;17.20;;;;;;;;;;5034840;28;21006;-76
2023/04/12 11:47:47;;;;;;;18.73;17.93;;;;;;;;;;5033608;28;20512;-76
2023/04/12 11:50:27;;;;;;;17.70;16.90;;;;;;;;;;5034686;28;20949;-77
2023/04/12 11:52:55;;;;;;;18.17;17.33;;;;;;;;;;5035947;28;20431;-76
2023/04/12 11:55:22;;;;;;;18.80;18.00;;;;;;;;;;5035311;28;20459;-76
2023/04/12 11:57:54;;;;;;;18.30;17.50;;;;;;;;;;5034954;28;20426;-77
2023/04/12 12:00:24;;;;;;;18.80;18.00;;;;;;;;;;5034775;28;20849;-77
2023/04/12 12:02:51;;;;;;;18.23;17.43;;;;;;;;;;5035986;28;20458;-77
2023/04/12 12:05:18;;;;;;;17.80;17.00;;;;;;;;;;5035823;28;20427;-77
2023/04/12 12:07:45;;;;;;;19.63;18.20;;;;;;;;;;5035743;28;20455;-77
2023/04/12 12:10:12;;;;;;;17.93;17.13;;;;;;;;;;5035965;28;20446;-77
2023/04/12 12:12:39;;;;;;;18.50;17.70;;;;;;;;;;5035868;28;20415;-77
2023/04/12 12:15:08;;;;;;;19.07;18.27;;;;;;;;;;5035640;28;20525;-77
2023/04/12 12:17:37;;;;;;;18.73;17.83;;;;;;;;;;5035600;28;20417;-77
2023/04/12 12:20:05;;;;;;;18.73;17.83;;;;;;;;;;5035463;28;20494;-77
2023/04/12 12:22:32;;;;;;;18.70;17.80;;;;;;;;;;5034808;28;21006;-77
2023/04/12 12:25:00;;;;;;;18.70;17.90;;;;;;;;;;5036044;28;20430;-77
2023/04/12 12:27:34;;;;;;;18.60;17.80;;;;;;;;;;5034757;28;20422;-76
2023/04/12 12:30:03;;;;;;;18.13;17.33;;;;;;;;;;5033990;28;20483;-77
2023/04/12 12:32:35;;;;;;;19.20;18.30;;;;;;;;;;5035102;28;20460;-77
2023/04/12 12:35:02;;;;;;;19.57;18.57;;;;;;;;;;5034705;28;20418;-76
2023/04/12 12:37:30;;;;;;;20.33;19.40;;;;;;;;;;5034021;28;20426;-76
2023/04/12 12:40:01;;;;;;;26.50;24.90;;;;;;;;;;5034241;28;20496;-77
2023/04/12 12:42:28;;;;;;;20.30;19.30;;;;;;;;;;5034553;28;20468;-76
2023/04/12 12:44:55;;;;;;;18.90;18.00;;;;;;;;;;5033330;28;20487;-77
2023/04/12 12:47:22;;;;;;;20.53;19.23;;;;;;;;;;5034183;28;20464;-77
2023/04/12 12:49:50;;;;;;;21.33;20.13;;;;;;;;;;5034959;28;20446;-77
2023/04/12 12:52:17;;;;;;;21.23;20.03;;;;;;;;;;5034891;28;20492;-76
2023/04/12 12:54:44;;;;;;;20.47;18.93;;;;;;;;;;5034066;28;20932;-77
2023/04/12 12:57:11;;;;;;;19.17;18.27;;;;;;;;;;5033825;28;20856;-86
2023/04/12 12:59:38;;;;;;;19.73;18.83;;;;;;;;;;5036444;28;20450;-85
2023/04/12 13:02:06;;;;;;;18.93;18.13;;;;;;;;;;5036599;28;20436;-85
2023/04/12 13:04:33;;;;;;;19.17;18.30;;;;;;;;;;5035592;28;20457;-84
2023/04/12 13:07:01;;;;;;;20.50;19.50;;;;;;;;;;5036103;28;20456;-84
2023/04/12 13:09:28;;;;;;;19.40;18.50;;;;;;;;;;5035548;28;20454;-85
2023/04/12 13:11:56;;;;;;;20.20;19.20;;;;;;;;;;5036748;28;20480;-85
2023/04/12 13:14:23;;;;;;;19.40;18.50;;;;;;;;;;5036853;28;20456;-86
2023/04/12 13:16:50;;;;;;;18.90;18.10;;;;;;;;;;5036770;28;20465;-86
2023/04/12 13:19:17;;;;;;;18.80;18.00;;;;;;;;;;5036111;28;20454;-81
2023/04/12 13:21:44;;;;;;;18.83;18.03;;;;;;;;;;5035506;28;20514;-82
2023/04/12 13:24:12;;;;;;;18.40;17.60;;;;;;;;;;5035115;28;20601;-83
2023/04/12 13:26:40;;;;;;;18.43;17.63;;;;;;;;;;5034609;28;20435;-84
2023/04/12 13:29:07;;;;;;;19.80;18.90;;;;;;;;;;5037179;28;20771;-83
2023/04/12 13:31:34;;;;;;;18.27;17.47;;;;;;;;;;5033505;28;20452;-75
2023/04/12 13:34:01;;;;;;;19.23;18.33;;;;;;;;;;5032468;28;20487;-76
2023/04/12 13:36:28;;;;;;;19.77;18.80;;;;;;;;;;5032736;28;20426;-76
2023/04/12 13:38:55;;;;;;;19.00;18.20;;;;;;;;;;5033079;28;20505;-75
2023/04/12 13:41:23;;;;;;;20.67;19.67;;;;;;;;;;5033183;28;20422;-75
2023/04/12 13:43:50;;;;;;;22.43;21.33;;;;;;;;;;5033217;28;20461;-76
2023/04/12 13:46:17;;;;;;;23.30;22.13;;;;;;;;;;5032626;28;20446;-76
2023/04/12 13:48:44;;;;;;;22.10;21.00;;;;;;;;;;5033071;28;20464;-76
2023/04/12 13:51:11;;;;;;;21.53;20.43;;;;;;;;;;5032508;28;20930;-75
2023/04/12 13:53:38;;;;;;;23.60;22.47;;;;;;;;;;5033079;28;20430;-76
2023/04/12 13:56:06;;;;;;;23.23;22.13;;;;;;;;;;5033132;28;20419;-77
2023/04/12 13:58:34;;;;;;;23.37;22.07;;;;;;;;;;5032422;28;20951;-76
2023/04/12 14:01:01;;;;;;;23.57;22.40;;;;;;;;;;5033793;28;20454;-83
2023/04/12 14:03:29;;;;;;;22.67;21.57;;;;;;;;;;5034717;28;20533;-85
2023/04/12 14:05:56;;;;;;;23.80;22.60;;;;;;;;;;5034770;28;20435;-84
2023/04/12 14:08:23;;;;;;;22.90;21.80;;;;;;;;;;5032320;28;20848;-76
2023/04/12 14:10:50;;;;;;;22.80;21.60;;;;;;;;;;5032779;28;20441;-76
2023/04/12 14:13:17;;;;;;;24.33;22.93;;;;;;;;;;5032114;28;20942;-76
2023/04/12 14:15:45;;;;;;;26.47;24.90;;;;;;;;;;5031691;28;21395;-76
2023/04/12 14:18:12;;;;;;;24.57;23.37;;;;;;;;;;5032461;28;20533;-77
2023/04/12 14:20:39;;;;;;;24.70;23.50;;;;;;;;;;5032426;28;20434;-76